createdAt,value
2022-09-24T00:01:40.602Z,9.68
2022-09-24T00:04:10.448Z,11.93
2022-09-24T00:06:42.029Z,10.30
2022-09-24T00:09:10.996Z,10.88
2022-09-24T00:11:39.777Z,11.15
2022-09-24T00:14:08.137Z,11.63
2022-09-24T00:16:36.482Z,10.93
2022-09-24T00:19:05.324Z,10.98
2022-09-24T00:21:35.813Z,8.48
2022-09-24T00:24:09.674Z,12.85
2022-09-24T00:26:52.198Z,8.60
2022-09-24T00:29:22.020Z,10.43
2022-09-24T00:31:51.204Z,15.30
2022-09-24T00:34:19.754Z,8.73
2022-09-24T00:36:47.534Z,10.70
2022-09-24T00:39:17.779Z,11.23
2022-09-24T00:41:47.229Z,10.00
2022-09-24T00:44:54.337Z,13.02
2022-09-24T00:47:31.439Z,14.38
2022-09-24T00:50:14.083Z,10.93
2022-09-24T00:52:45.814Z,10.02
2022-09-24T00:55:16.551Z,11.60
2022-09-24T00:57:46.146Z,15.02
2022-09-24T01:00:15.201Z,9.57
2022-09-24T01:02:47.101Z,11.50
2022-09-24T01:05:14.925Z,10.20
2022-09-24T01:07:42.735Z,10.45
2022-09-24T01:10:11.825Z,14.27
2022-09-24T01:12:48.041Z,12.65
2022-09-24T01:15:25.552Z,12.15
2022-09-24T01:18:02.847Z,7.55
2022-09-24T01:21:05.143Z,11.88
2022-09-24T01:24:09.009Z,13.60
2022-09-24T01:26:51.181Z,9.27
2022-09-24T01:29:33.450Z,13.25
2022-09-24T01:32:08.253Z,8.60
2022-09-24T01:34:41.235Z,9.68
2022-09-24T01:37:09.641Z,8.52
2022-09-24T01:39:38.909Z,8.90
2022-09-24T01:42:08.208Z,9.00
2022-09-24T01:44:38.133Z,11.10
2022-09-24T01:47:07.600Z,11.98
2022-09-24T01:49:35.348Z,11.20
2022-09-24T01:52:07.981Z,8.55
2022-09-24T01:54:38.467Z,10.15
2022-09-24T01:57:11.489Z,9.07
2022-09-24T01:59:47.273Z,10.38
2022-09-24T02:02:22.974Z,9.57
2022-09-24T02:04:58.621Z,9.90
2022-09-24T02:07:34.460Z,7.97
2022-09-24T02:10:02.280Z,11.43
2022-09-24T02:12:34.050Z,12.57
2022-09-24T02:15:11.425Z,8.55
2022-09-24T02:17:42.856Z,10.35
2022-09-24T02:20:15.344Z,10.10
2022-09-24T02:22:46.285Z,11.23
2022-09-24T02:25:17.753Z,8.43
2022-09-24T02:27:45.561Z,10.95
2022-09-24T02:30:14.745Z,9.93
2022-09-24T02:32:45.036Z,14.30
2022-09-24T02:35:13.276Z,9.80
2022-09-24T02:37:43.107Z,14.52
2022-09-24T02:40:13.846Z,10.35
2022-09-24T02:42:43.400Z,10.45
2022-09-24T02:45:12.307Z,17.50
2022-09-24T02:47:42.594Z,10.75
2022-09-24T02:50:10.753Z,10.63
2022-09-24T02:52:38.521Z,10.45
2022-09-24T02:55:06.795Z,10.52
2022-09-24T02:57:34.735Z,13.27
2022-09-24T03:00:02.995Z,10.30
2022-09-24T03:02:31.442Z,12.07
2022-09-24T03:05:00.706Z,11.30
2022-09-24T03:07:28.425Z,11.38
2022-09-24T03:09:56.161Z,12.45
2022-09-24T03:12:24.916Z,11.38
2022-09-24T03:14:52.902Z,12.50
2022-09-24T03:17:20.651Z,12.85
2022-09-24T03:19:48.421Z,10.55
2022-09-24T03:22:17.514Z,12.35
2022-09-24T03:24:45.851Z,10.85
2022-09-24T03:27:14.108Z,10.27
2022-09-24T03:29:59.159Z,11.07
2022-09-24T03:32:27.778Z,11.27
2022-09-24T03:34:55.534Z,8.57
2022-09-24T03:37:24.605Z,10.15
2022-09-24T03:39:52.458Z,8.18
2022-09-24T03:42:20.202Z,13.20
2022-09-24T03:44:47.912Z,8.60
2022-09-24T03:47:15.689Z,10.80
2022-09-24T03:49:43.413Z,9.40
2022-09-24T03:52:11.152Z,8.80
2022-09-24T03:54:40.922Z,9.13
2022-09-24T03:57:08.703Z,8.23
2022-09-24T03:59:36.425Z,8.80
2022-09-24T04:02:04.403Z,10.07
2022-09-24T04:04:32.127Z,11.23
2022-09-24T04:06:59.950Z,10.07
2022-09-24T04:09:27.826Z,10.32
2022-09-24T04:11:56.976Z,8.50
2022-09-24T04:14:24.848Z,7.90
2022-09-24T04:16:53.072Z,10.13
2022-09-24T04:19:20.863Z,9.40
2022-09-24T04:21:48.599Z,10.40
2022-09-24T04:24:16.474Z,9.30
2022-09-24T04:26:44.164Z,12.40
2022-09-24T04:29:13.970Z,10.77
2022-09-24T04:31:41.776Z,12.18
2022-09-24T04:34:10.579Z,10.27
2022-09-24T04:36:38.373Z,10.98
2022-09-24T04:39:06.258Z,8.23
2022-09-24T04:41:35.070Z,9.35
2022-09-24T04:44:03.807Z,10.45
2022-09-24T04:46:34.416Z,10.57
2022-09-24T04:49:02.488Z,9.63
2022-09-24T04:51:34.215Z,9.35
2022-09-24T04:54:02.791Z,12.43
2022-09-24T04:56:30.955Z,10.30
2022-09-24T04:58:59.138Z,9.55
2022-09-24T05:01:27.005Z,9.90
2022-09-24T05:03:56.178Z,9.63
2022-09-24T05:06:24.172Z,9.95
2022-09-24T05:08:51.923Z,12.98
2022-09-24T05:11:20.369Z,11.88
2022-09-24T05:13:48.231Z,16.42
2022-09-24T05:16:16.210Z,14.45
2022-09-24T05:18:44.648Z,12.02
2022-09-24T05:21:13.777Z,30.17
2022-09-24T05:23:41.586Z,24.73
2022-09-24T05:26:26.701Z,20.17
2022-09-24T05:28:54.457Z,16.55
2022-09-24T05:31:22.286Z,22.17
2022-09-24T05:33:51.179Z,21.40
2022-09-24T05:36:20.277Z,19.98
2022-09-24T05:38:48.002Z,21.70
2022-09-24T05:41:15.798Z,17.92
2022-09-24T05:43:43.518Z,21.20
2022-09-24T05:46:11.387Z,16.88
2022-09-24T05:48:39.276Z,17.08
2022-09-24T05:51:07.093Z,15.75
2022-09-24T05:53:36.362Z,16.67
2022-09-24T05:56:04.235Z,15.50
2022-09-24T05:58:32.235Z,14.50
2022-09-24T06:01:01.690Z,13.52
2022-09-24T06:03:31.646Z,14.70
2022-09-24T06:06:02.191Z,13.23
2022-09-24T06:08:32.421Z,24.55
2022-09-24T06:11:02.442Z,13.98
2022-09-24T06:13:31.515Z,13.95
2022-09-24T06:16:02.112Z,15.95
2022-09-24T06:18:29.917Z,16.60
2022-09-24T06:21:03.219Z,13.98
2022-09-24T06:23:31.144Z,13.52
2022-09-24T06:25:58.892Z,15.43
2022-09-24T06:28:27.994Z,17.27
2022-09-24T06:30:55.739Z,14.40
2022-09-24T06:33:23.634Z,12.30
2022-09-24T06:35:51.317Z,14.35
2022-09-24T06:38:20.176Z,12.23
2022-09-24T06:40:49.186Z,12.05
2022-09-24T06:43:17.499Z,14.40
2022-09-24T06:45:46.663Z,14.02
2022-09-24T06:48:15.464Z,18.38
2022-09-24T06:50:45.616Z,17.98
2022-09-24T06:53:14.090Z,16.60
2022-09-24T06:55:42.112Z,16.60
2022-09-24T06:58:11.707Z,29.23
2022-09-24T07:00:40.409Z,16.20
2022-09-24T07:03:15.042Z,15.43
2022-09-24T07:05:43.937Z,16.15
2022-09-24T07:08:12.294Z,12.82
2022-09-24T07:10:43.768Z,13.05
2022-09-24T07:13:13.601Z,18.90
2022-09-24T07:15:41.688Z,12.77
2022-09-24T07:18:11.391Z,13.82
2022-09-24T07:20:39.356Z,20.30
2022-09-24T07:23:09.012Z,14.10
2022-09-24T07:25:37.588Z,17.07
2022-09-24T07:28:06.757Z,14.13
2022-09-24T07:30:35.435Z,14.85
2022-09-24T07:33:03.643Z,15.70
2022-09-24T07:35:32.830Z,13.45
2022-09-24T07:38:02.137Z,12.27
2022-09-24T07:40:32.006Z,14.65
2022-09-24T07:43:00.803Z,18.90
2022-09-24T07:45:31.463Z,12.63
2022-09-24T07:48:00.902Z,13.40
2022-09-24T07:50:30.192Z,15.63
2022-09-24T07:53:00.527Z,16.30
2022-09-24T07:55:28.768Z,13.43
2022-09-24T07:57:57.407Z,16.50
2022-09-24T08:00:26.360Z,12.32
2022-09-24T08:02:56.422Z,14.82
2022-09-24T08:05:24.665Z,15.35
2022-09-24T08:07:52.853Z,15.85
2022-09-24T08:10:22.616Z,13.45
2022-09-24T08:12:51.564Z,13.90
2022-09-24T08:15:19.891Z,18.83
2022-09-24T08:17:47.585Z,15.85
2022-09-24T08:20:15.345Z,14.32
2022-09-24T08:22:43.043Z,14.88
2022-09-24T08:25:10.839Z,17.55
2022-09-24T08:27:40.055Z,15.38
2022-09-24T08:30:15.886Z,13.90
2022-09-24T08:32:47.633Z,12.88
2022-09-24T08:35:15.813Z,15.50
2022-09-24T08:37:43.503Z,12.70
2022-09-24T08:40:16.102Z,13.13
2022-09-24T08:42:50.928Z,17.02
2022-09-24T08:45:36.366Z,15.48
2022-09-24T08:48:14.774Z,13.60
2022-09-24T08:50:49.786Z,14.73
2022-09-24T08:53:23.608Z,13.25
2022-09-24T08:55:53.862Z,15.40
2022-09-24T08:58:34.802Z,15.80
2022-09-24T09:01:14.956Z,13.70
2022-09-24T09:03:48.034Z,10.43
2022-09-24T09:06:49.220Z,17.08
2022-09-24T09:09:21.901Z,13.20
2022-09-24T09:11:52.533Z,13.40
2022-09-24T09:14:31.185Z,12.57
2022-09-24T09:17:03.913Z,12.68
2022-09-24T09:19:35.517Z,13.82
2022-09-24T09:22:09.191Z,11.77
2022-09-24T09:24:44.396Z,12.15
2022-09-24T09:27:15.212Z,14.77
2022-09-24T09:29:47.252Z,13.23
2022-09-24T09:32:31.947Z,16.77
2022-09-24T09:35:12.227Z,12.70
2022-09-24T09:37:49.309Z,13.15
2022-09-24T09:40:32.100Z,15.65
2022-09-24T09:43:02.854Z,13.68
2022-09-24T09:45:39.415Z,13.40
2022-09-24T09:48:12.794Z,11.02
2022-09-24T09:50:45.375Z,16.48
2022-09-24T09:53:20.939Z,13.07
2022-09-24T09:55:54.400Z,10.23
2022-09-24T09:58:25.274Z,13.02
2022-09-24T10:01:04.797Z,16.75
2022-09-24T10:03:35.398Z,17.25
2022-09-24T10:06:06.338Z,12.93
2022-09-24T10:08:34.277Z,13.90
2022-09-24T10:11:04.328Z,16.27
2022-09-24T10:13:32.775Z,13.57
2022-09-24T10:16:04.827Z,14.40
2022-09-24T10:18:35.122Z,14.32
2022-09-24T10:21:07.328Z,18.23
2022-09-24T10:23:38.754Z,11.88
2022-09-24T10:26:07.853Z,15.98
2022-09-24T10:28:57.713Z,11.15
2022-09-24T10:31:31.624Z,15.55
2022-09-24T10:34:01.930Z,14.15
2022-09-24T10:36:32.506Z,13.02
2022-09-24T10:41:33.087Z,16.73
2022-09-24T10:44:04.733Z,12.27
2022-09-24T10:47:05.548Z,14.25
2022-09-24T10:49:50.055Z,12.63
2022-09-24T10:52:31.224Z,12.02
2022-09-24T10:55:08.977Z,12.98
2022-09-24T10:57:49.796Z,11.93
2022-09-24T11:00:21.688Z,11.32
2022-09-24T11:03:24.579Z,11.88
2022-09-24T11:05:58.037Z,12.75
2022-09-24T11:08:43.248Z,15.57
2022-09-24T11:11:23.921Z,12.25
2022-09-24T11:14:07.321Z,17.42
2022-09-24T11:16:54.987Z,11.88
2022-09-24T11:19:37.712Z,11.02
2022-09-24T11:22:14.859Z,13.13
2022-09-24T11:25:22.663Z,12.77
2022-09-24T11:28:00.941Z,12.65
2022-09-24T11:30:35.508Z,15.55
2022-09-24T11:33:22.706Z,13.10
2022-09-24T11:36:24.937Z,11.85
2022-09-24T11:39:15.798Z,12.30
2022-09-24T11:41:50.816Z,10.48
2022-09-24T11:44:50.542Z,12.35
2022-09-24T11:47:32.344Z,15.87
2022-09-24T11:50:16.473Z,11.93
2022-09-24T11:52:48.715Z,11.23
2022-09-24T11:55:23.543Z,26.92
2022-09-24T11:57:55.437Z,12.70
2022-09-24T12:00:28.936Z,11.77
2022-09-24T12:03:04.689Z,9.40
2022-09-24T12:05:36.848Z,10.30
2022-09-24T12:08:12.085Z,11.32
2022-09-24T12:10:47.647Z,11.13
2022-09-24T12:13:21.940Z,10.63
2022-09-24T12:15:53.634Z,10.73
2022-09-24T12:18:26.183Z,8.50
2022-09-24T12:20:58.515Z,7.55
2022-09-24T12:23:29.831Z,10.80
2022-09-24T12:26:01.918Z,9.02
2022-09-24T12:28:56.037Z,8.70
2022-09-24T12:31:49.572Z,9.82
2022-09-24T12:34:26.324Z,11.52
2022-09-24T12:37:03.350Z,12.95
2022-09-24T12:39:37.492Z,11.15
2022-09-24T12:42:09.559Z,9.77
2022-09-24T12:44:42.576Z,9.40
2022-09-24T12:47:21.153Z,10.15
2022-09-24T12:49:53.315Z,11.00
2022-09-24T12:52:26.753Z,11.02
2022-09-24T12:55:00.972Z,11.50
2022-09-24T12:57:33.671Z,9.57
2022-09-24T13:00:04.125Z,8.95
2022-09-24T13:05:17.526Z,9.52
2022-09-24T13:07:57.435Z,10.23
2022-09-24T13:10:28.481Z,7.50
2022-09-24T13:13:00.310Z,9.75
2022-09-24T13:15:36.634Z,9.43
2022-09-24T13:18:21.488Z,9.52
2022-09-24T13:21:03.067Z,8.88
2022-09-24T13:23:35.271Z,6.45
2022-09-24T13:26:05.653Z,9.73
2022-09-24T13:31:23.618Z,8.05
2022-09-24T13:33:54.878Z,8.38
2022-09-24T13:36:31.097Z,7.63
2022-09-24T13:39:04.918Z,6.65
2022-09-24T13:41:42.259Z,10.32
2022-09-24T13:44:18.973Z,9.82
2022-09-24T13:46:51.111Z,8.57
2022-09-24T13:49:21.632Z,8.55
2022-09-24T13:54:33.914Z,8.40
2022-09-24T13:57:12.144Z,9.82
2022-09-24T13:59:41.226Z,7.22
2022-09-24T14:02:25.594Z,8.88
2022-09-24T14:04:58.645Z,12.27
2022-09-24T14:07:27.799Z,8.30
2022-09-24T14:10:08.436Z,9.05
2022-09-24T14:12:36.445Z,11.60
2022-09-24T14:15:15.242Z,10.82
2022-09-24T14:17:42.953Z,10.35
2022-09-24T14:20:22.025Z,7.78
2022-09-24T14:22:50.327Z,10.35
2022-09-24T14:25:23.040Z,12.07
2022-09-24T14:27:52.439Z,9.20
2022-09-24T14:30:24.027Z,8.20
2022-09-24T14:32:54.391Z,7.50
2022-09-24T14:35:30.015Z,8.77
2022-09-24T14:38:04.316Z,7.40
2022-09-24T14:40:41.432Z,8.48
2022-09-24T14:43:17.540Z,7.78
2022-09-24T14:45:47.929Z,7.93
2022-09-24T14:48:26.825Z,6.53
2022-09-24T14:50:54.783Z,5.90
2022-09-24T14:53:25.922Z,9.15
2022-09-24T14:55:54.146Z,6.13
2022-09-24T14:58:27.008Z,8.15
2022-09-24T15:00:58.887Z,6.28
2022-09-24T15:03:33.220Z,5.75
2022-09-24T15:06:07.184Z,5.68
2022-09-24T15:08:35.118Z,8.57
2022-09-24T15:11:05.586Z,9.15
2022-09-24T15:16:06.091Z,4.72
2022-09-24T15:18:34.859Z,8.57
2022-09-24T15:21:06.220Z,5.47
2022-09-24T15:23:34.225Z,10.63
2022-09-24T15:26:02.181Z,6.55
2022-09-24T15:28:30.274Z,8.00
2022-09-24T15:30:58.251Z,6.18
2022-09-24T15:33:27.521Z,6.38
2022-09-24T15:35:55.324Z,5.57
2022-09-24T15:38:23.206Z,6.68
2022-09-24T15:40:53.722Z,8.02
2022-09-24T15:43:23.972Z,6.47
2022-09-24T15:45:52.530Z,6.85
2022-09-24T15:48:20.248Z,7.30
2022-09-24T15:50:50.583Z,11.73
2022-09-24T15:53:21.538Z,7.22
2022-09-24T15:55:53.292Z,6.78
2022-09-24T15:58:21.553Z,12.10
2022-09-24T16:00:49.752Z,9.35
2022-09-24T16:03:20.935Z,9.68
2022-09-24T16:05:50.328Z,8.07
2022-09-24T16:08:19.013Z,10.10
2022-09-24T16:10:47.835Z,6.25
2022-09-24T16:13:16.376Z,7.40
2022-09-24T16:15:44.682Z,7.88
2022-09-24T16:18:14.590Z,9.77
2022-09-24T16:20:43.102Z,6.93
2022-09-24T16:23:15.591Z,7.57
2022-09-24T16:25:43.819Z,9.85
2022-09-24T16:28:12.571Z,9.13
2022-09-24T16:30:40.393Z,8.57
2022-09-24T16:33:08.214Z,9.60
2022-09-24T16:35:35.965Z,10.18
2022-09-24T16:38:03.704Z,11.60
2022-09-24T16:40:32.908Z,7.63
2022-09-24T16:43:00.747Z,10.10
2022-09-24T16:45:28.614Z,7.63
2022-09-24T16:47:56.370Z,9.60
2022-09-24T16:50:24.623Z,6.65
2022-09-24T16:52:54.830Z,8.88
2022-09-24T16:55:24.109Z,8.52
2022-09-24T16:57:54.163Z,8.32
2022-09-24T17:00:21.919Z,7.00
2022-09-24T17:02:49.684Z,9.65
2022-09-24T17:05:17.855Z,6.63
2022-09-24T17:07:45.699Z,9.93
2022-09-24T17:10:16.055Z,10.25
2022-09-24T17:12:46.177Z,9.35
2022-09-24T17:15:16.810Z,11.32
2022-09-24T17:17:49.949Z,13.23
2022-09-24T17:20:18.890Z,11.73
2022-09-24T17:22:48.438Z,11.80
2022-09-24T17:25:16.623Z,10.15
2022-09-24T17:27:44.947Z,12.00
2022-09-24T17:30:13.438Z,10.40
2022-09-24T17:32:42.558Z,9.10
2022-09-24T17:35:10.733Z,11.05
2022-09-24T17:37:38.539Z,11.57
2022-09-24T17:40:08.062Z,15.40
2022-09-24T17:42:35.872Z,14.40
2022-09-24T17:45:03.761Z,11.10
2022-09-24T17:47:52.092Z,15.02
2022-09-24T17:50:21.334Z,15.85
2022-09-24T17:52:49.058Z,12.93
2022-09-24T17:55:16.842Z,13.38
2022-09-24T17:57:44.593Z,12.90
2022-09-24T18:00:13.031Z,14.75
2022-09-24T18:02:41.177Z,12.65
2022-09-24T18:05:10.654Z,16.98
2022-09-24T18:07:39.964Z,15.80
2022-09-24T18:10:08.262Z,12.85
2022-09-24T18:12:36.679Z,11.52
2022-09-24T18:15:04.728Z,10.57
2022-09-24T18:17:32.496Z,9.73
2022-09-24T18:20:00.194Z,11.20
2022-09-24T18:22:28.890Z,8.23
2022-09-24T18:25:01.684Z,9.25
2022-09-24T18:27:31.766Z,8.32
2022-09-24T18:30:00.911Z,11.07
2022-09-24T18:32:29.907Z,9.98
2022-09-24T18:34:57.654Z,11.90
2022-09-24T18:37:25.814Z,15.25
2022-09-24T18:39:53.518Z,10.35
2022-09-24T18:42:22.625Z,9.88
2022-09-24T18:44:50.713Z,12.63
2022-09-24T18:47:20.270Z,11.07
2022-09-24T18:49:49.155Z,15.13
2022-09-24T18:52:16.936Z,22.63
2022-09-24T18:54:44.679Z,16.17
2022-09-24T18:57:12.497Z,14.82
2022-09-24T18:59:45.111Z,14.95
2022-09-24T19:02:14.238Z,12.98
2022-09-24T19:04:42.519Z,11.40
2022-09-24T19:07:10.355Z,13.43
2022-09-24T19:09:38.145Z,13.07
2022-09-24T19:12:08.017Z,11.52
2022-09-24T19:14:37.805Z,13.30
2022-09-24T19:17:07.087Z,10.77
2022-09-24T19:19:34.843Z,12.68
2022-09-24T19:22:02.778Z,10.70
2022-09-24T19:24:30.546Z,13.40
2022-09-24T19:26:58.282Z,13.85
2022-09-24T19:29:26.398Z,11.18
2022-09-24T19:31:54.105Z,11.20
2022-09-24T19:34:23.257Z,11.57
2022-09-24T19:36:50.989Z,10.68
2022-09-24T19:39:19.150Z,9.95
2022-09-24T19:41:47.320Z,11.35
2022-09-24T19:44:15.742Z,13.57
2022-09-24T19:46:44.063Z,18.02
2022-09-24T19:49:11.862Z,12.65
2022-09-24T19:51:41.106Z,15.93
2022-09-24T19:54:09.625Z,16.10
2022-09-24T19:56:38.347Z,11.80
2022-09-24T19:59:07.984Z,17.58
2022-09-24T20:01:35.904Z,15.80
2022-09-24T20:04:06.259Z,10.93
2022-09-24T20:06:35.754Z,13.25
2022-09-24T20:09:05.924Z,13.90
2022-09-24T20:11:33.854Z,14.35
2022-09-24T20:14:02.594Z,13.32
2022-09-24T20:16:32.420Z,12.77
2022-09-24T20:19:01.201Z,12.55
2022-09-24T20:21:32.030Z,15.60
2022-09-24T20:24:01.217Z,14.40
2022-09-24T20:26:48.008Z,15.18
2022-09-24T20:29:16.441Z,13.05
2022-09-24T20:31:51.708Z,13.48
2022-09-24T20:34:19.995Z,12.38
2022-09-24T20:36:47.747Z,12.40
2022-09-24T20:39:15.552Z,16.08
2022-09-24T20:41:45.427Z,22.27
2022-09-24T20:44:13.327Z,18.42
2022-09-24T20:46:41.284Z,19.02
2022-09-24T20:49:09.944Z,18.13
2022-09-24T20:51:38.723Z,20.88
2022-09-24T20:54:06.658Z,20.15
2022-09-24T20:56:34.552Z,42.55
2022-09-24T20:59:04.208Z,19.27
2022-09-24T21:01:32.150Z,21.73
2022-09-24T21:04:00.001Z,23.67
2022-09-24T21:06:28.083Z,20.77
2022-09-24T21:08:55.939Z,18.52
2022-09-24T21:11:26.474Z,17.30
2022-09-24T21:16:26.186Z,15.80
2022-09-24T21:18:55.160Z,18.10
2022-09-24T21:21:26.343Z,18.27
2022-09-24T21:23:56.714Z,18.23
2022-09-24T21:26:26.098Z,16.67
2022-09-24T21:28:55.592Z,19.52
2022-09-24T21:31:27.471Z,19.27
2022-09-24T21:33:56.102Z,16.73
2022-09-24T21:36:26.170Z,15.98
2022-09-24T21:38:55.328Z,17.88
2022-09-24T21:41:24.209Z,16.15
2022-09-24T21:43:53.468Z,18.20
2022-09-24T21:46:21.313Z,15.70
2022-09-24T21:48:51.227Z,16.65
2022-09-24T21:51:21.322Z,16.48
2022-09-24T21:53:50.074Z,17.30
2022-09-24T21:56:18.895Z,17.75
2022-09-24T21:58:46.862Z,15.93
2022-09-24T22:01:17.837Z,16.25
2022-09-24T22:03:46.744Z,19.98
2022-09-24T22:06:16.358Z,16.08
2022-09-24T22:08:47.042Z,20.70
2022-09-24T22:11:15.879Z,18.25
2022-09-24T22:13:44.963Z,17.60
2022-09-24T22:16:12.970Z,19.25
2022-09-24T22:18:41.041Z,20.73
2022-09-24T22:21:11.374Z,20.30
2022-09-24T22:23:41.416Z,19.40
2022-09-24T22:26:10.631Z,16.35
2022-09-24T22:28:38.847Z,16.75
2022-09-24T22:31:08.698Z,22.13
2022-09-24T22:33:54.352Z,23.73
2022-09-24T22:36:23.313Z,19.30
2022-09-24T22:38:55.954Z,18.73
2022-09-24T22:41:25.206Z,19.17
2022-09-24T22:43:53.187Z,19.88
2022-09-24T22:46:21.032Z,17.35
2022-09-24T22:48:50.127Z,19.10
2022-09-24T22:51:17.972Z,17.02
2022-09-24T22:53:45.982Z,20.35
2022-09-24T22:56:16.989Z,18.70
2022-09-24T22:58:50.748Z,18.23
2022-09-24T23:01:22.217Z,17.40
2022-09-24T23:03:51.249Z,19.50
2022-09-24T23:06:20.822Z,18.40
2022-09-24T23:08:49.632Z,19.83
2022-09-24T23:11:20.989Z,18.05
2022-09-24T23:13:53.468Z,14.80
2022-09-24T23:16:23.306Z,20.05
2022-09-24T23:18:53.681Z,22.20
2022-09-24T23:21:22.935Z,16.33
2022-09-24T23:23:54.489Z,19.02
2022-09-24T23:26:25.159Z,22.77
2022-09-24T23:28:54.718Z,21.42
2022-09-24T23:31:25.232Z,20.13
2022-09-24T23:36:20.749Z,18.45
2022-09-24T23:38:48.447Z,19.50
2022-09-24T23:41:17.037Z,18.80
2022-09-24T23:43:46.672Z,18.98
2022-09-24T23:46:14.926Z,18.90
2022-09-24T23:48:42.893Z,21.13
2022-09-24T23:51:11.323Z,20.15
2022-09-24T23:53:39.312Z,21.50
2022-09-24T23:56:08.772Z,18.85
2022-09-24T23:58:36.734Z,20.60
